Time;durP1;ratioP1;P1;durP2;ratioP2;P2;SDS_P1;SDS_P2;PMS_P1;PMS_P2;Temp;Humidity;BMP_temperature;BMP_pressure;BME280_temperature;BME280_humidity;BME280_pressure;Samples;Min_cycle;Max_cycle;Signal;HPM_P1;HPM_P2
2023/06/16 00:03:15;;;;;;;4.93;3.78;;;;;;;17.17;48.42;100585.41;10195015;29;20072;-77
2023/06/16 00:08:19;;;;;;;8.18;4.75;;;;;;;16.93;48.58;100584.22;10189697;29;20080;-76
2023/06/16 00:13:22;;;;;;;7.15;4.15;;;;;;;16.49;50.10;100578.00;10190683;29;20051;-77
2023/06/16 00:18:27;;;;;;;7.70;4.30;;;;;;;16.19;50.84;100579.25;10190445;29;20056;-77
2023/06/16 00:23:30;;;;;;;4.20;3.80;;;;;;;16.13;51.57;100586.16;10194538;29;20424;-76
2023/06/16 00:28:33;;;;;;;4.90;3.47;;;;;;;16.03;51.79;100578.09;10195521;29;20044;-77
2023/06/16 00:33:37;;;;;;;5.72;3.72;;;;;;;15.35;53.76;100589.38;10185316;29;20059;-76
2023/06/16 00:38:40;;;;;;;3.97;3.58;;;;;;;15.46;53.49;100585.63;10189170;29;20055;-76
2023/06/16 00:43:44;;;;;;;6.65;4.60;;;;;;;15.73;52.83;100578.47;10184590;29;20075;-78
2023/06/16 00:48:48;;;;;;;9.85;4.38;;;;;;;15.57;53.12;100582.69;10193689;29;20055;-77
2023/06/16 00:53:51;;;;;;;5.57;4.32;;;;;;;15.39;53.91;100579.13;10200276;29;20047;-77
2023/06/16 00:58:55;;;;;;;5.43;4.07;;;;;;;15.43;53.73;100578.66;10197648;28;20044;-77
2023/06/16 01:03:59;;;;;;;8.07;4.15;;;;;;;15.63;53.54;100567.69;10189208;29;20051;-77
2023/06/16 01:09:09;;;;;;;7.43;4.90;;;;;;;15.26;54.00;100565.91;10190576;29;20142;-76
2023/06/16 01:14:19;;;;;;;4.80;4.30;;;;;;;15.10;54.51;100566.53;10182817;29;20055;-77
2023/06/16 01:19:37;;;;;;;6.43;4.78;;;;;;;14.67;55.77;100564.41;10183006;29;20052;-76
2023/06/16 01:24:43;;;;;;;6.88;4.57;;;;;;;14.55;56.18;100574.56;10187511;29;20087;-77
2023/06/16 01:29:46;;;;;;;9.30;4.40;;;;;;;14.33;56.77;100567.59;10190484;28;20693;-76
2023/06/16 01:34:51;;;;;;;5.68;4.70;;;;;;;13.98;57.91;100568.19;10181110;29;20044;-77
2023/06/16 01:39:55;;;;;;;6.13;4.45;;;;;;;14.46;56.80;100568.19;10188550;29;20526;-78
2023/06/16 01:44:59;;;;;;;6.35;4.72;;;;;;;14.50;56.40;100566.88;10181770;29;20048;-78
2023/06/16 01:50:03;;;;;;;9.85;5.03;;;;;;;14.52;56.22;100567.59;10186055;29;20059;-76
2023/06/16 01:55:08;;;;;;;5.53;4.55;;;;;;;14.52;56.41;100566.75;10185952;29;20068;-76
2023/06/16 02:00:16;;;;;;;7.03;4.35;;;;;;;14.36;57.17;100564.59;10185035;29;20048;-77
2023/06/16 02:05:24;;;;;;;5.90;4.53;;;;;;;14.72;56.49;100575.66;10185348;29;20070;-76
2023/06/16 02:10:28;;;;;;;7.68;4.50;;;;;;;15.04;55.52;100570.69;10189244;29;20438;-77
2023/06/16 02:15:32;;;;;;;9.10;4.32;;;;;;;15.21;54.96;100563.63;10197915;29;20042;-76
2023/06/16 02:20:35;;;;;;;6.03;4.90;;;;;;;15.26;54.64;100561.34;10198152;29;20062;-76
2023/06/16 02:25:39;;;;;;;5.40;4.32;;;;;;;15.23;54.52;100566.22;10188131;29;20048;-76
2023/06/16 02:30:42;;;;;;;6.22;4.38;;;;;;;15.14;54.45;100562.56;10192796;29;20051;-76
2023/06/16 02:35:45;;;;;;;6.50;4.43;;;;;;;14.99;54.43;100561.34;10185369;29;20041;-76
2023/06/16 02:40:49;;;;;;;7.07;4.60;;;;;;;14.90;54.99;100565.78;10188405;29;20575;-76
2023/06/16 02:45:53;;;;;;;6.90;5.00;;;;;;;14.65;54.87;100567.28;10180681;29;20412;-76
2023/06/16 02:50:56;;;;;;;7.38;4.65;;;;;;;14.26;56.44;100567.34;10186255;29;20052;-76
2023/06/16 02:56:01;;;;;;;7.20;4.80;;;;;;;14.14;57.15;100563.91;10184243;29;20467;-75
2023/06/16 03:01:06;;;;;;;14.75;4.63;;;;;;;13.86;57.82;100565.63;10188091;29;20584;-76
2023/06/16 03:06:09;;;;;;;11.60;5.63;;;;;;;13.83;57.85;100559.66;10182985;29;20416;-76
2023/06/16 03:11:15;;;;;;;10.02;5.38;;;;;;;13.79;58.06;100571.72;10186254;29;20508;-76
2023/06/16 03:16:27;;;;;;;8.07;6.53;;;;;;;13.70;58.34;100576.97;10190745;29;20044;-76
2023/06/16 03:21:34;;;;;;;8.98;5.93;;;;;;;13.71;58.06;100567.91;10191519;29;20134;-76
2023/06/16 03:26:39;;;;;;;7.65;5.70;;;;;;;13.88;58.10;100574.44;10198856;29;20607;-76
2023/06/16 03:32:02;;;;;;;10.65;5.97;;;;;;;13.34;59.00;100574.91;10194962;29;20055;-76
2023/06/16 03:37:05;;;;;;;10.57;6.10;;;;;;;13.41;59.40;100578.75;10197118;29;20139;-76
2023/06/16 03:42:14;;;;;;;8.82;5.93;;;;;;;13.29;59.88;100572.59;10197758;29;20048;-76
2023/06/16 03:47:19;;;;;;;7.57;6.50;;;;;;;13.19;60.42;100569.00;10195018;29;20155;-76
2023/06/16 03:52:22;;;;;;;9.75;6.32;;;;;;;13.04;61.07;100573.94;10195062;29;20423;-76
2023/06/16 03:57:27;;;;;;;8.23;6.15;;;;;;;13.04;61.29;100576.63;10190063;29;20046;-76
2023/06/16 04:02:30;;;;;;;9.95;7.32;;;;;;;13.63;59.58;100580.38;10185693;29;20036;-76
2023/06/16 04:07:34;;;;;;;10.85;6.18;;;;;;;13.91;59.11;100587.66;10184293;29;20039;-76
2023/06/16 04:12:38;;;;;;;13.90;6.57;;;;;;;14.21;58.65;100587.69;10183588;29;20048;-76
2023/06/16 04:17:41;;;;;;;11.10;6.13;;;;;;;14.44;57.82;100580.97;10190399;29;20071;-76
2023/06/16 04:22:45;;;;;;;10.70;6.97;;;;;;;14.34;57.76;100588.22;10188460;29;20079;-76
2023/06/16 04:27:50;;;;;;;8.80;6.25;;;;;;;14.12;58.58;100586.66;10196238;29;20036;-76
2023/06/16 04:32:54;;;;;;;10.45;6.63;;;;;;;13.87;59.47;100580.81;10192775;29;20043;-76
2023/06/16 04:37:59;;;;;;;7.65;5.93;;;;;;;14.06;59.72;100595.34;10204838;29;20044;-76
2023/06/16 04:43:03;;;;;;;7.82;6.28;;;;;;;14.38;59.33;100595.06;10190811;29;20044;-76
2023/06/16 04:48:08;;;;;;;9.30;6.82;;;;;;;14.47;58.36;100580.69;10194025;29;20044;-76
2023/06/16 04:53:11;;;;;;;11.68;7.70;;;;;;;14.46;57.92;100583.56;10197069;29;20071;-76
2023/06/16 04:58:15;;;;;;;14.63;7.93;;;;;;;14.46;57.99;100567.34;10190271;29;20059;-76
2023/06/16 05:03:18;;;;;;;10.13;8.15;;;;;;;14.64;58.22;100575.53;10197538;29;20152;-76
2023/06/16 05:08:23;;;;;;;13.55;7.82;;;;;;;14.88;57.38;100565.06;10195890;29;20059;-76
2023/06/16 05:13:27;;;;;;;11.70;6.32;;;;;;;14.81;57.20;100561.28;10189949;29;20048;-76
2023/06/16 05:18:30;;;;;;;8.13;6.13;;;;;;;15.07;57.57;100571.41;10195838;29;20122;-76
2023/06/16 05:23:36;;;;;;;6.97;5.88;;;;;;;15.40;56.18;100570.00;10191660;29;20040;-76
2023/06/16 05:28:40;;;;;;;7.78;5.80;;;;;;;15.72;55.24;100565.97;10188672;29;20054;-76
2023/06/16 05:33:44;;;;;;;6.72;5.93;;;;;;;15.92;55.13;100565.63;10196860;29;20042;-76
2023/06/16 05:38:48;;;;;;;5.95;5.28;;;;;;;16.18;54.83;100561.28;10191687;29;20456;-76
2023/06/16 05:43:53;;;;;;;8.35;5.65;;;;;;;16.31;54.67;100573.44;10192203;29;20063;-76
2023/06/16 05:48:57;;;;;;;7.30;6.20;;;;;;;16.18;55.04;100573.00;10188510;29;20051;-76
2023/06/16 05:54:01;;;;;;;8.75;6.13;;;;;;;16.17;55.43;100567.72;10188710;29;20055;-76
2023/06/16 05:59:05;;;;;;;8.80;7.75;;;;;;;16.59;55.23;100571.47;10187293;29;20070;-76
2023/06/16 06:04:11;;;;;;;10.07;6.55;;;;;;;16.78;53.96;100577.69;10186849;29;20036;-76
2023/06/16 06:09:16;;;;;;;12.35;7.57;;;;;;;16.49;53.91;100578.00;10187494;29;20191;-76
2023/06/16 06:14:21;;;;;;;7.63;6.40;;;;;;;16.89;54.25;100580.13;10189561;29;20044;-76
2023/06/16 06:19:24;;;;;;;14.90;7.53;;;;;;;16.78;53.76;100574.97;10188420;29;20054;-74
2023/06/16 06:24:29;;;;;;;14.38;9.60;;;;;;;16.59;54.58;100587.75;10184451;29;20044;-74
2023/06/16 06:29:35;;;;;;;14.50;9.77;;;;;;;16.71;54.53;100582.91;10181466;29;20048;-74
2023/06/16 06:34:38;;;;;;;11.43;10.23;;;;;;;16.58;54.67;100586.03;10181448;29;20043;-74
2023/06/16 06:39:42;;;;;;;11.75;8.98;;;;;;;15.96;57.72;100595.13;10192034;29;20556;-74
2023/06/16 06:44:46;;;;;;;10.02;6.80;;;;;;;16.11;57.78;100599.84;10196102;29;20127;-74
2023/06/16 06:49:50;;;;;;;10.75;7.85;;;;;;;16.41;57.95;100605.91;10191381;29;20527;-74
2023/06/16 06:54:53;;;;;;;8.30;7.15;;;;;;;16.67;56.78;100592.34;10192697;29;20044;-73
2023/06/16 06:59:57;;;;;;;8.65;6.50;;;;;;;16.83;55.44;100598.91;10196332;29;20518;-74
2023/06/16 07:05:00;;;;;;;9.35;6.35;;;;;;;17.14;54.82;100594.72;10159266;29;20055;-73
2023/06/16 07:10:05;;;;;;;10.88;6.80;;;;;;;17.32;55.08;100594.63;10157624;29;20058;-77
2023/06/16 07:15:10;;;;;;;10.23;8.60;;;;;;;17.93;53.61;100601.56;10169921;29;20056;-77
2023/06/16 07:20:14;;;;;;;10.88;8.98;;;;;;;18.81;51.29;100600.09;10163757;29;20059;-77
2023/06/16 07:25:17;;;;;;;14.07;8.85;;;;;;;19.83;49.55;100592.09;10158706;29;20078;-74
2023/06/16 07:30:21;;;;;;;14.55;10.73;;;;;;;19.97;47.94;100598.63;10154296;29;20107;-75
2023/06/16 07:35:25;;;;;;;15.45;10.35;;;;;;;20.18;47.99;100595.22;10152794;29;20192;-74
2023/06/16 07:40:28;;;;;;;15.00;9.60;;;;;;;20.46;47.64;100599.13;10148626;29;20089;-75
2023/06/16 07:45:33;;;;;;;11.25;9.50;;;;;;;21.78;46.42;100591.16;10159370;29;20051;-74
2023/06/16 07:50:36;;;;;;;17.52;10.52;;;;;;;22.75;43.44;100589.75;10162673;29;20060;-75
2023/06/16 07:55:39;;;;;;;12.07;9.95;;;;;;;24.60;41.21;100588.81;10162370;29;20044;-75
2023/06/16 08:00:43;;;;;;;12.77;9.27;;;;;;;25.09;40.06;100581.97;10174862;28;20854;-74
2023/06/16 08:05:46;;;;;;;12.75;10.10;;;;;;;24.04;41.17;100594.63;10159161;29;20051;-75
2023/06/16 08:10:49;;;;;;;12.07;9.68;;;;;;;22.61;43.89;100597.03;10156178;29;20047;-75
2023/06/16 08:15:53;;;;;;;12.80;9.15;;;;;;;21.82;45.77;100589.72;10161135;29;20055;-75
2023/06/16 08:20:56;;;;;;;13.20;9.90;;;;;;;21.91;46.25;100587.72;10161464;29;20203;-75
2023/06/16 08:26:00;;;;;;;23.88;11.77;;;;;;;22.58;45.74;100582.91;10166725;29;20531;-75
2023/06/16 08:31:04;;;;;;;12.35;10.48;;;;;;;23.26;44.21;100578.53;10163512;29;20596;-74
2023/06/16 08:36:07;;;;;;;25.27;11.23;;;;;;;23.61;43.51;100581.19;10163397;29;20551;-75
2023/06/16 08:41:11;;;;;;;18.90;9.50;;;;;;;23.26;43.46;100570.31;10155043;29;20079;-77
2023/06/16 08:46:15;;;;;;;17.58;8.60;;;;;;;23.91;41.42;100564.41;10156895;29;20052;-76
2023/06/16 08:51:23;;;;;;;10.75;8.57;;;;;;;24.42;40.72;100561.97;10156885;29;20066;-75
2023/06/16 08:56:27;;;;;;;9.60;7.80;;;;;;;23.39;41.52;100558.53;10165499;29;20051;-77
2023/06/16 09:01:33;;;;;;;7.50;6.78;;;;;;;23.47;42.11;100563.84;10161713;29;21290;-78
2023/06/16 09:06:36;;;;;;;8.73;7.50;;;;;;;22.56;43.34;100558.44;10164871;29;20146;-77
2023/06/16 09:11:39;;;;;;;7.85;7.05;;;;;;;23.27;41.86;100560.19;10164850;29;20052;-78
2023/06/16 09:16:56;;;;;;;8.93;7.53;;;;;;;23.56;41.04;100556.28;10173148;29;20048;-78
2023/06/16 09:21:59;;;;;;;11.65;7.63;;;;;;;23.74;40.30;100547.47;10149761;29;20047;-77
2023/06/16 09:27:02;;;;;;;7.50;6.47;;;;;;;24.23;39.51;100546.31;10153760;29;20044;-76
2023/06/16 09:32:10;;;;;;;6.60;6.00;;;;;;;25.33;39.53;100530.94;10160277;29;20040;-75
2023/06/16 09:37:19;;;;;;;7.50;6.75;;;;;;;24.19;39.63;100536.78;10163632;29;20062;-77
2023/06/16 09:42:22;;;;;;;7.65;6.68;;;;;;;23.91;40.31;100539.72;10161786;29;20067;-76
2023/06/16 09:47:26;;;;;;;9.35;5.03;;;;;;;24.69;39.84;100526.25;10157277;29;20447;-76
2023/06/16 09:52:29;;;;;;;6.50;5.60;;;;;;;25.76;38.60;100522.06;10146998;29;20195;-77
2023/06/16 09:57:32;;;;;;;6.53;5.93;;;;;;;25.82;36.80;100528.59;10149589;29;20048;-77
2023/06/16 10:02:39;;;;;;;10.80;5.43;;;;;;;24.92;37.81;100520.28;10155593;29;20055;-76
2023/06/16 10:07:43;;;;;;;6.80;5.22;;;;;;;24.46;39.80;100527.53;10157470;29;20126;-76
2023/06/16 10:12:47;;;;;;;6.18;5.57;;;;;;;25.04;38.62;100523.22;10154996;29;20133;-76
2023/06/16 10:17:54;;;;;;;6.15;5.10;;;;;;;25.97;37.54;100509.00;10161024;29;20048;-75
2023/06/16 10:22:59;;;;;;;6.35;4.97;;;;;;;26.07;37.12;100504.69;10158169;28;20461;-76
2023/06/16 10:28:07;;;;;;;8.45;5.30;;;;;;;25.72;37.85;100501.53;10159743;29;20039;-76
2023/06/16 10:33:18;;;;;;;5.90;4.70;;;;;;;26.58;36.79;100501.94;10151937;29;20063;-76
2023/06/16 10:38:32;;;;;;;5.20;4.55;;;;;;;26.98;35.50;100493.25;10158973;29;20175;-76
2023/06/16 10:43:35;;;;;;;7.00;5.25;;;;;;;26.82;34.67;100491.91;10156680;29;20051;-75
2023/06/16 10:49:10;;;;;;;4.53;4.13;;;;;;;25.28;37.63;100486.75;10165847;28;20047;-76
2023/06/16 10:54:14;;;;;;;5.57;4.43;;;;;;;26.34;37.05;100484.38;10155882;28;20075;-75
2023/06/16 10:59:17;;;;;;;4.82;4.43;;;;;;;27.27;35.12;100481.44;10154762;29;20056;-76
2023/06/16 11:04:21;;;;;;;4.55;4.10;;;;;;;28.32;33.31;100473.69;10149081;29;20136;-76
2023/06/16 11:09:29;;;;;;;4.90;4.10;;;;;;;28.93;33.07;100481.47;10144424;29;20496;-78
2023/06/16 11:14:32;;;;;;;7.13;4.22;;;;;;;29.42;31.84;100470.00;10154704;28;20527;-76
2023/06/16 11:19:39;;;;;;;5.35;4.50;;;;;;;29.51;31.52;100476.84;10158987;29;21059;-78
2023/06/16 11:24:42;;;;;;;4.95;4.40;;;;;;;30.09;30.66;100472.06;10153130;29;20044;-76
2023/06/16 11:29:45;;;;;;;4.30;3.90;;;;;;;28.74;31.12;100479.09;10151108;29;20739;-76
2023/06/16 11:34:49;;;;;;;4.60;3.90;;;;;;;29.57;30.95;100472.25;10140104;29;20087;-75
2023/06/16 11:39:52;;;;;;;6.15;3.92;;;;;;;29.90;30.81;100468.69;10137697;29;21139;-76
2023/06/16 11:44:55;;;;;;;4.80;4.40;;;;;;;31.41;29.15;100471.41;10145139;29;20516;-76
2023/06/16 11:49:59;;;;;;;6.45;4.70;;;;;;;32.13;28.39;100456.25;10152169;29;20062;-77
2023/06/16 11:55:04;;;;;;;6.57;4.88;;;;;;;30.01;30.21;100458.63;10157689;29;20728;-76
2023/06/16 12:00:09;;;;;;;4.50;4.20;;;;;;;29.00;32.07;100459.19;10164395;29;20062;-76
2023/06/16 12:05:22;;;;;;;6.55;4.75;;;;;;;28.89;32.19;100469.22;10156309;29;20052;-76
2023/06/16 12:10:25;;;;;;;5.40;4.90;;;;;;;29.01;31.56;100473.88;10148277;29;20051;-76
2023/06/16 12:15:28;;;;;;;4.97;4.57;;;;;;;27.72;33.27;100461.69;10144471;29;20052;-77
2023/06/16 12:20:32;;;;;;;5.93;4.60;;;;;;;27.72;34.15;100458.09;10153343;29;20152;-75
2023/06/16 12:25:35;;;;;;;6.47;5.70;;;;;;;27.33;34.23;100450.16;10158030;29;20051;-76
2023/06/16 12:30:38;;;;;;;5.57;4.93;;;;;;;26.76;34.93;100455.09;10161071;28;20055;-77
2023/06/16 12:35:42;;;;;;;8.23;4.78;;;;;;;26.54;35.08;100456.63;10163305;29;20060;-77
2023/06/16 12:40:45;;;;;;;5.75;5.20;;;;;;;26.55;35.05;100450.91;10165016;29;20191;-77
2023/06/16 12:45:48;;;;;;;5.57;5.07;;;;;;;26.57;34.52;100445.97;10154222;29;20048;-76
2023/06/16 12:50:53;;;;;;;5.20;4.70;;;;;;;26.63;35.10;100446.97;10157467;29;20055;-75
2023/06/16 12:55:56;;;;;;;7.32;4.65;;;;;;;27.61;33.71;100441.25;10157377;29;20051;-77
2023/06/16 13:00:59;;;;;;;5.38;4.95;;;;;;;29.30;32.37;100430.50;10158477;29;20043;-78
2023/06/16 13:06:03;;;;;;;6.15;4.47;;;;;;;31.15;30.15;100415.59;10158397;29;20058;-76
2023/06/16 13:11:06;;;;;;;8.50;4.82;;;;;;;31.70;29.04;100410.91;10161672;29;20056;-73
2023/06/16 13:16:10;;;;;;;9.30;4.68;;;;;;;31.30;29.49;100420.53;10160018;29;20062;-75
2023/06/16 13:21:14;;;;;;;13.60;6.32;;;;;;;23.98;67.55;100450.06;10168838;29;20067;-78
2023/06/16 13:26:20;;;;;;;9.57;5.45;;;;;;;20.02;79.77;100438.94;10162245;28;20066;-79
2023/06/16 13:31:23;;;;;;;6.13;5.53;;;;;;;20.41;85.03;100439.75;10169220;29;20502;-80
2023/06/16 13:36:28;;;;;;;8.18;6.13;;;;;;;21.65;81.40;100425.06;10158842;28;20048;-80
2023/06/16 13:41:31;;;;;;;7.32;6.50;;;;;;;23.79;69.84;100422.41;10160338;29;20684;-77
2023/06/16 13:46:34;;;;;;;6.28;5.47;;;;;;;25.74;61.09;100411.41;10156739;29;20083;-77
2023/06/16 13:51:40;;;;;;;6.32;5.63;;;;;;;25.60;43.84;100401.53;10155810;29;20111;-79
2023/06/16 13:56:44;;;;;;;5.60;5.07;;;;;;;25.53;49.33;100406.22;10152839;29;20401;-78
2023/06/16 14:01:47;;;;;;;5.30;4.88;;;;;;;25.84;42.28;100392.47;10166306;28;20066;-78
2023/06/16 14:06:51;;;;;;;6.13;4.80;;;;;;;27.00;40.34;100384.44;10158963;29;20129;-77
2023/06/16 14:11:54;;;;;;;8.27;5.13;;;;;;;27.49;35.88;100373.38;10159635;29;20056;-77
2023/06/16 14:16:57;;;;;;;8.18;5.13;;;;;;;28.43;42.46;100373.41;10159092;29;20385;-78
2023/06/16 14:22:01;;;;;;;7.03;5.07;;;;;;;29.62;34.73;100367.22;10190621;28;20051;-78
2023/06/16 14:27:05;;;;;;;5.22;4.80;;;;;;;30.39;34.23;100358.13;10158523;29;20063;-79
2023/06/16 14:32:11;;;;;;;6.03;5.18;;;;;;;28.90;35.09;100359.47;10148490;29;20574;-78
2023/06/16 14:37:15;;;;;;;8.68;5.15;;;;;;;27.76;35.26;100368.25;10145606;29;20423;-77
2023/06/16 14:42:18;;;;;;;5.28;4.68;;;;;;;28.00;34.26;100358.06;10151065;29;20051;-79
2023/06/16 14:47:21;;;;;;;5.15;4.57;;;;;;;28.24;33.39;100351.44;10162062;29;20538;-78
2023/06/16 14:52:25;;;;;;;6.45;4.70;;;;;;;28.38;33.28;100348.44;10169604;29;20054;-78
2023/06/16 14:57:28;;;;;;;4.70;4.18;;;;;;;29.22;30.76;100334.94;10166979;29;20059;-75
2023/06/16 15:02:31;;;;;;;3.92;3.63;;;;;;;30.28;29.54;100333.28;10163884;29;20047;-77
2023/06/16 15:07:35;;;;;;;7.43;4.00;;;;;;;30.68;29.84;100325.50;10157748;29;20066;-78
2023/06/16 15:12:38;;;;;;;5.90;4.10;;;;;;;29.79;29.87;100331.22;10162951;29;20055;-79
2023/06/16 15:17:41;;;;;;;6.07;4.25;;;;;;;30.14;29.17;100325.38;10179594;29;20055;-78
2023/06/16 15:22:45;;;;;;;4.70;3.75;;;;;;;30.75;28.72;100321.72;10179889;29;20487;-77
2023/06/16 15:27:48;;;;;;;4.10;3.53;;;;;;;30.51;27.82;100323.91;10181464;29;20062;-77
2023/06/16 15:33:01;;;;;;;4.80;3.75;;;;;;;30.37;27.44;100326.22;10192715;29;20051;-80
2023/06/16 15:38:05;;;;;;;4.25;3.30;;;;;;;30.75;27.17;100316.19;10181085;29;20067;-77
2023/06/16 15:43:12;;;;;;;5.57;3.80;;;;;;;30.94;26.80;100316.63;10154174;29;20676;-78
2023/06/16 15:48:15;;;;;;;3.42;3.13;;;;;;;30.96;26.79;100312.50;10163265;29;20059;-77
2023/06/16 15:53:19;;;;;;;4.05;3.22;;;;;;;30.80;26.10;100311.53;10160198;29;20058;-78
2023/06/16 15:58:22;;;;;;;3.92;3.50;;;;;;;30.72;26.62;100313.91;10165205;29;20064;-78
2023/06/16 16:03:25;;;;;;;5.65;3.38;;;;;;;30.45;27.00;100312.75;10163876;29;20047;-77
2023/06/16 16:08:29;;;;;;;5.75;3.10;;;;;;;30.87;26.35;100300.22;10159418;29;20047;-78
2023/06/16 16:13:34;;;;;;;4.07;3.65;;;;;;;29.95;27.55;100308.19;10164381;29;20048;-79
2023/06/16 16:18:36;;;;;;;3.20;3.00;;;;;;;29.58;28.14;100305.09;10158765;29;20047;-77
2023/06/16 16:23:41;;;;;;;4.15;3.47;;;;;;;29.77;28.36;100305.69;10171219;29;20102;-80
2023/06/16 16:28:44;;;;;;;6.78;3.28;;;;;;;29.96;27.45;100307.09;10162626;29;20150;-79
2023/06/16 16:33:47;;;;;;;4.82;3.35;;;;;;;32.40;25.95;100300.56;10161035;29;20159;-78
2023/06/16 16:38:51;;;;;;;4.35;3.08;;;;;;;34.90;23.72;100302.28;10161257;29;20054;-78
2023/06/16 16:43:54;;;;;;;4.30;3.85;;;;;;;32.63;25.00;100300.06;10160476;29;20052;-79
2023/06/16 16:48:56;;;;;;;3.90;3.42;;;;;;;30.08;27.42;100303.38;10153845;29;20056;-77
2023/06/16 16:54:01;;;;;;;7.22;3.42;;;;;;;30.23;27.94;100304.44;10154618;29;20059;-77
2023/06/16 16:59:04;;;;;;;6.70;3.80;;;;;;;34.43;24.75;100295.28;10154901;29;20060;-77
2023/06/16 17:04:06;;;;;;;3.92;3.63;;;;;;;36.89;21.46;100296.59;10160460;29;20059;-79
2023/06/16 17:09:11;;;;;;;4.35;2.90;;;;;;;38.65;20.76;100295.91;10162174;29;20059;-79
2023/06/16 17:14:15;;;;;;;3.95;3.47;;;;;;;39.57;19.18;100310.50;10157031;29;20058;-78
2023/06/16 17:19:18;;;;;;;3.83;3.40;;;;;;;39.63;19.27;100314.84;10162565;29;20052;-78
2023/06/16 17:24:22;;;;;;;3.53;3.22;;;;;;;37.05;20.60;100308.38;10158220;29;20063;-79
2023/06/16 17:29:25;;;;;;;6.65;3.40;;;;;;;37.81;20.39;100303.47;10157309;29;20052;-77
2023/06/16 17:34:28;;;;;;;4.53;3.88;;;;;;;38.28;20.04;100312.63;10173150;29;20062;-77
2023/06/16 17:39:32;;;;;;;4.45;3.58;;;;;;;38.46;20.08;100316.47;10159646;29;20119;-79
2023/06/16 17:44:35;;;;;;;6.40;3.47;;;;;;;37.08;21.03;100315.31;10164678;29;20055;-79
2023/06/16 17:49:38;;;;;;;4.38;3.47;;;;;;;34.43;23.16;100315.63;10182420;28;20059;-79
2023/06/16 17:54:42;;;;;;;4.97;3.10;;;;;;;30.47;26.25;100332.75;10174639;29;20039;-77
2023/06/16 17:59:46;;;;;;;4.70;3.72;;;;;;;28.31;29.70;100333.94;10156035;29;20051;-76
2023/06/16 18:04:49;;;;;;;6.47;3.90;;;;;;;26.55;31.30;100326.97;10149986;29;20059;-76
2023/06/16 18:09:53;;;;;;;3.70;3.40;;;;;;;25.23;32.73;100338.13;10152836;29;20064;-77
2023/06/16 18:14:56;;;;;;;5.93;3.45;;;;;;;24.73;33.68;100335.25;10158692;29;20162;-76
2023/06/16 18:19:59;;;;;;;7.00;3.70;;;;;;;24.33;34.46;100327.16;10173163;29;20052;-76
2023/06/16 18:25:03;;;;;;;4.00;3.70;;;;;;;23.99;34.47;100329.13;10158602;29;20062;-78
2023/06/16 18:30:08;;;;;;;5.18;3.63;;;;;;;23.96;35.13;100331.47;10155060;29;20519;-78
2023/06/16 18:35:11;;;;;;;7.78;4.65;;;;;;;23.91;35.62;100336.75;10146589;29;20052;-78
2023/06/16 18:40:15;;;;;;;7.50;4.05;;;;;;;23.76;36.07;100326.00;10148605;29;20051;-78
2023/06/16 18:45:18;;;;;;;5.43;3.92;;;;;;;23.55;36.71;100338.03;10156659;29;20059;-77
2023/06/16 18:50:21;;;;;;;4.65;4.10;;;;;;;23.48;36.68;100340.78;10156193;29;20044;-76
2023/06/16 18:55:26;;;;;;;4.13;3.72;;;;;;;23.49;37.12;100341.59;10156617;29;20428;-78
2023/06/16 19:00:28;;;;;;;4.97;3.90;;;;;;;23.35;36.79;100338.84;10157564;29;20060;-77
2023/06/16 19:05:32;;;;;;;4.20;3.85;;;;;;;23.10;37.50;100338.59;10151767;29;20052;-78
2023/06/16 19:10:36;;;;;;;4.03;3.63;;;;;;;23.03;37.98;100331.41;10149809;29;20052;-79
2023/06/16 19:15:40;;;;;;;10.70;3.92;;;;;;;22.94;38.18;100331.59;10152114;29;20419;-80
2023/06/16 19:20:43;;;;;;;4.38;3.83;;;;;;;22.89;38.47;100336.84;10161369;29;21178;-80
2023/06/16 19:25:47;;;;;;;7.47;3.75;;;;;;;22.80;38.79;100345.47;10158480;29;20055;-79
2023/06/16 19:30:50;;;;;;;6.70;3.92;;;;;;;22.64;39.48;100336.56;10157416;29;20047;-79
2023/06/16 19:35:53;;;;;;;4.32;3.92;;;;;;;22.49;39.92;100344.06;10157394;29;20051;-80
2023/06/16 19:40:57;;;;;;;4.97;3.85;;;;;;;22.30;40.15;100348.38;10157000;28;20099;-78
2023/06/16 19:46:00;;;;;;;5.38;3.92;;;;;;;22.18;39.96;100350.81;10160076;29;20052;-77
2023/06/16 19:51:03;;;;;;;4.30;3.90;;;;;;;22.11;40.19;100364.47;10151180;29;20063;-75
2023/06/16 19:56:07;;;;;;;3.78;3.47;;;;;;;22.05;41.64;100370.75;10150601;29;20134;-74
2023/06/16 20:01:11;;;;;;;4.95;3.53;;;;;;;21.98;41.41;100363.53;10153561;29;20729;-76
2023/06/16 20:06:14;;;;;;;4.63;4.15;;;;;;;21.85;41.32;100365.13;10161152;29;20171;-74
2023/06/16 20:11:18;;;;;;;4.68;4.05;;;;;;;21.73;41.51;100366.69;10159016;29;20059;-73
2023/06/16 20:16:21;;;;;;;4.85;4.13;;;;;;;21.67;42.06;100364.75;10157406;29;20044;-73
2023/06/16 20:21:24;;;;;;;4.93;4.15;;;;;;;21.57;41.68;100362.34;10155289;29;20044;-74
2023/06/16 20:26:28;;;;;;;6.88;4.18;;;;;;;21.47;42.58;100369.19;10157001;28;20475;-73
2023/06/16 20:31:33;;;;;;;6.68;4.57;;;;;;;21.26;43.21;100368.16;10162376;28;20051;-75
2023/06/16 20:36:37;;;;;;;5.28;4.07;;;;;;;21.13;43.64;100366.13;10162585;29;20055;-74
2023/06/16 20:41:42;;;;;;;5.13;4.47;;;;;;;21.01;43.89;100371.25;10166048;29;20066;-75
2023/06/16 20:46:45;;;;;;;4.75;4.35;;;;;;;20.82;44.33;100379.22;10158055;29;20047;-76
2023/06/16 20:51:48;;;;;;;6.13;5.03;;;;;;;20.73;44.50;100375.72;10163066;28;20047;-77
2023/06/16 20:56:55;;;;;;;5.28;4.55;;;;;;;20.44;44.13;100371.19;10163065;28;20051;-76
2023/06/16 21:01:58;;;;;;;5.22;4.45;;;;;;;20.31;44.75;100367.22;10164494;29;20076;-76
2023/06/16 21:07:02;;;;;;;6.65;4.53;;;;;;;20.28;44.34;100372.19;10158696;29;20050;-77
2023/06/16 21:12:08;;;;;;;8.02;5.07;;;;;;;20.05;44.86;100366.81;10156852;29;20055;-77
2023/06/16 21:17:11;;;;;;;5.07;4.32;;;;;;;20.07;44.91;100371.03;10158632;29;21225;-76
2023/06/16 21:22:14;;;;;;;4.85;4.35;;;;;;;20.21;44.81;100363.88;10170086;28;21169;-75
2023/06/16 21:27:19;;;;;;;7.40;4.55;;;;;;;20.06;44.43;100358.44;10147428;29;20161;-77
2023/06/16 21:32:22;;;;;;;7.30;4.93;;;;;;;20.18;45.25;100377.06;10146123;29;20063;-77
2023/06/16 21:37:25;;;;;;;5.18;4.60;;;;;;;20.16;44.96;100373.66;10151088;29;20080;-77
2023/06/16 21:42:29;;;;;;;9.13;4.93;;;;;;;19.82;45.11;100373.16;10151369;29;21634;-77
2023/06/16 21:47:32;;;;;;;6.60;4.40;;;;;;;19.79;46.10;100378.16;10151957;29;20062;-77
2023/06/16 21:52:35;;;;;;;5.35;4.85;;;;;;;19.44;45.50;100378.59;10159154;29;20043;-76
2023/06/16 21:57:40;;;;;;;10.40;5.25;;;;;;;19.23;45.96;100375.69;10165711;29;20055;-77
2023/06/16 22:02:42;;;;;;;5.95;4.50;;;;;;;19.41;46.28;100369.94;10147905;29;20052;-75
2023/06/16 22:07:50;;;;;;;5.60;5.07;;;;;;;19.29;45.23;100374.13;10144652;29;20052;-77
2023/06/16 22:12:54;;;;;;;7.70;5.35;;;;;;;19.27;45.74;100378.91;10152697;29;20083;-76
2023/06/16 22:17:57;;;;;;;6.00;4.60;;;;;;;19.20;45.26;100365.16;10161511;29;20052;-76
2023/06/16 22:23:00;;;;;;;7.15;5.20;;;;;;;19.08;45.98;100372.03;10154053;29;20051;-76
2023/06/16 22:28:05;;;;;;;7.05;4.75;;;;;;;19.06;45.17;100377.69;10155454;29;20525;-76
2023/06/16 22:33:08;;;;;;;5.60;5.05;;;;;;;19.13;45.17;100377.81;10151812;29;21412;-77
2023/06/16 22:38:11;;;;;;;5.85;5.20;;;;;;;19.07;46.26;100379.38;10148640;29;20067;-76
2023/06/16 22:43:15;;;;;;;5.72;5.13;;;;;;;18.86;46.78;100387.31;10143793;29;20091;-76
2023/06/16 22:48:18;;;;;;;6.05;5.35;;;;;;;18.73;47.01;100380.56;10148549;29;21018;-77
2023/06/16 22:53:23;;;;;;;5.22;4.63;;;;;;;18.75;46.95;100362.16;10160873;29;20851;-76
2023/06/16 22:58:27;;;;;;;6.93;4.90;;;;;;;18.33;46.12;100367.97;10154337;29;20051;-76
2023/06/16 23:03:30;;;;;;;7.72;4.68;;;;;;;17.93;47.32;100376.03;10156819;29;20067;-76
2023/06/16 23:08:33;;;;;;;15.18;5.45;;;;;;;17.68;47.94;100377.94;10165408;28;20179;-77
2023/06/16 23:13:37;;;;;;;5.18;4.43;;;;;;;17.54;48.05;100375.06;10139950;29;20055;-77